sensor_id;sensor_type;location;lat;lon;timestamp;pressure;altitude;pressure_sealevel;temperature;humidity
34073;BME280;20346;52.702;16.886;2024-03-22T00:02:15;101239.63;;;8.90;85.71
34073;BME280;20346;52.702;16.886;2024-03-22T00:04:41;101238.94;;;8.89;85.74
34073;BME280;20346;52.702;16.886;2024-03-22T00:07:06;101232.75;;;8.88;85.51
34073;BME280;20346;52.702;16.886;2024-03-22T00:09:32;101228.80;;;8.87;85.80
34073;BME280;20346;52.702;16.886;2024-03-22T00:11:57;101220.37;;;8.85;85.98
34073;BME280;20346;52.702;16.886;2024-03-22T00:14:23;101220.40;;;8.82;86.56
34073;BME280;20346;52.702;16.886;2024-03-22T00:16:48;101213.86;;;8.78;86.15
34073;BME280;20346;52.702;16.886;2024-03-22T00:19:14;101200.95;;;8.72;86.42
34073;BME280;20346;52.702;16.886;2024-03-22T00:21:39;101195.62;;;8.67;85.83
34073;BME280;20346;52.702;16.886;2024-03-22T00:24:04;101195.97;;;8.63;85.66
34073;BME280;20346;52.702;16.886;2024-03-22T00:26:30;101196.13;;;8.59;85.85
34073;BME280;20346;52.702;16.886;2024-03-22T00:28:56;101186.33;;;8.56;86.24
34073;BME280;20346;52.702;16.886;2024-03-22T00:31:23;101187.02;;;8.51;85.82
34073;BME280;20346;52.702;16.886;2024-03-22T00:33:49;101190.45;;;8.49;85.76
34073;BME280;20346;52.702;16.886;2024-03-22T00:36:14;101193.36;;;8.45;85.75
34073;BME280;20346;52.702;16.886;2024-03-22T00:38:39;101198.50;;;8.41;87.76
34073;BME280;20346;52.702;16.886;2024-03-22T00:41:05;101199.86;;;8.37;86.66
34073;BME280;20346;52.702;16.886;2024-03-22T00:43:31;101198.64;;;8.32;87.19
34073;BME280;20346;52.702;16.886;2024-03-22T00:45:57;101199.32;;;8.27;86.77
34073;BME280;20346;52.702;16.886;2024-03-22T00:48:23;101203.27;;;8.22;87.46
34073;BME280;20346;52.702;16.886;2024-03-22T00:50:49;101205.81;;;8.17;87.04
34073;BME280;20346;52.702;16.886;2024-03-22T00:53:14;101206.31;;;8.11;86.41
34073;BME280;20346;52.702;16.886;2024-03-22T00:55:40;101208.70;;;8.08;86.20
34073;BME280;20346;52.702;16.886;2024-03-22T00:58:05;101205.77;;;8.05;86.02
34073;BME280;20346;52.702;16.886;2024-03-22T01:00:30;101205.92;;;8.02;86.91
34073;BME280;20346;52.702;16.886;2024-03-22T01:02:56;101211.92;;;7.98;88.24
34073;BME280;20346;52.702;16.886;2024-03-22T01:05:21;101212.42;;;7.94;86.52
34073;BME280;20346;52.702;16.886;2024-03-22T01:07:47;101214.12;;;7.90;86.09
34073;BME280;20346;52.702;16.886;2024-03-22T01:10:12;101212.56;;;7.89;86.37
34073;BME280;20346;52.702;16.886;2024-03-22T01:12:38;101215.65;;;7.88;86.14
34073;BME280;20346;52.702;16.886;2024-03-22T01:15:06;101221.65;;;7.86;86.20
34073;BME280;20346;52.702;16.886;2024-03-22T01:17:31;101218.73;;;7.86;88.73
34073;BME280;20346;52.702;16.886;2024-03-22T01:19:57;101219.41;;;7.85;86.86
34073;BME280;20346;52.702;16.886;2024-03-22T01:22:22;101215.13;;;7.86;86.47
34073;BME280;20346;52.702;16.886;2024-03-22T01:24:48;101211.86;;;7.85;87.03
34073;BME280;20346;52.702;16.886;2024-03-22T01:27:14;101210.31;;;7.85;86.35
34073;BME280;20346;52.702;16.886;2024-03-22T01:29:39;101209.98;;;7.87;86.29
34073;BME280;20346;52.702;16.886;2024-03-22T01:32:06;101208.27;;;7.88;86.10
34073;BME280;20346;52.702;16.886;2024-03-22T01:34:32;101210.85;;;7.88;87.40
34073;BME280;20346;52.702;16.886;2024-03-22T01:36:58;101214.10;;;7.87;86.97
34073;BME280;20346;52.702;16.886;2024-03-22T01:39:23;101219.24;;;7.86;87.08
34073;BME280;20346;52.702;16.886;2024-03-22T01:41:49;101212.55;;;7.84;86.76
34073;BME280;20346;52.702;16.886;2024-03-22T01:44:15;101215.80;;;7.85;86.69
34073;BME280;20346;52.702;16.886;2024-03-22T01:46:41;101207.23;;;7.85;87.04
34073;BME280;20346;52.702;16.886;2024-03-22T01:49:09;101203.27;;;7.83;87.40
34073;BME280;20346;52.702;16.886;2024-03-22T01:51:35;101203.09;;;7.81;87.18
34073;BME280;20346;52.702;16.886;2024-03-22T01:54:01;101204.30;;;7.78;87.59
34073;BME280;20346;52.702;16.886;2024-03-22T01:56:29;101204.96;;;7.73;87.83
34073;BME280;20346;52.702;16.886;2024-03-22T01:58:56;101203.75;;;7.70;88.04
34073;BME280;20346;52.702;16.886;2024-03-22T02:01:21;101195.48;;;7.66;88.47
34073;BME280;20346;52.702;16.886;2024-03-22T02:03:47;101196.33;;;7.61;88.35
34073;BME280;20346;52.702;16.886;2024-03-22T02:06:12;101193.55;;;7.57;88.28
34073;BME280;20346;52.702;16.886;2024-03-22T02:08:37;101193.54;;;7.55;87.32
34073;BME280;20346;52.702;16.886;2024-03-22T02:11:05;101194.05;;;7.55;87.77
34073;BME280;20346;52.702;16.886;2024-03-22T02:13:31;101197.81;;;7.53;88.23
34073;BME280;20346;52.702;16.886;2024-03-22T02:15:56;101195.23;;;7.51;88.07
34073;BME280;20346;52.702;16.886;2024-03-22T02:18:22;101198.30;;;7.48;89.91
34073;BME280;20346;52.702;16.886;2024-03-22T02:20:48;101196.73;;;7.45;88.88
34073;BME280;20346;52.702;16.886;2024-03-22T02:23:13;101200.66;;;7.43;88.98
34073;BME280;20346;52.702;16.886;2024-03-22T02:25:38;101200.48;;;7.41;87.64
34073;BME280;20346;52.702;16.886;2024-03-22T02:28:04;101195.68;;;7.41;88.10
34073;BME280;20346;52.702;16.886;2024-03-22T02:30:29;101195.16;;;7.40;87.47
34073;BME280;20346;52.702;16.886;2024-03-22T02:32:55;101194.66;;;7.41;87.28
34073;BME280;20346;52.702;16.886;2024-03-22T02:35:20;101194.83;;;7.42;88.07
34073;BME280;20346;52.702;16.886;2024-03-22T02:37:45;101193.28;;;7.40;87.53
34073;BME280;20346;52.702;16.886;2024-03-22T02:40:11;101188.13;;;7.39;89.72
34073;BME280;20346;52.702;16.886;2024-03-22T02:42:37;101184.49;;;7.35;88.85
34073;BME280;20346;52.702;16.886;2024-03-22T02:45:03;101182.77;;;7.35;88.61
34073;BME280;20346;52.702;16.886;2024-03-22T02:47:28;101174.71;;;7.34;88.36
34073;BME280;20346;52.702;16.886;2024-03-22T02:49:53;101175.58;;;7.34;87.47
34073;BME280;20346;52.702;16.886;2024-03-22T02:52:19;101179.35;;;7.35;88.22
34073;BME280;20346;52.702;16.886;2024-03-22T02:54:44;101169.90;;;7.34;88.30
34073;BME280;20346;52.702;16.886;2024-03-22T02:57:09;101174.52;;;7.31;88.82
34073;BME280;20346;52.702;16.886;2024-03-22T02:59:35;101170.41;;;7.32;88.00
34073;BME280;20346;52.702;16.886;2024-03-22T03:02:00;101169.73;;;7.33;87.48
34073;BME280;20346;52.702;16.886;2024-03-22T03:04:25;101173.01;;;7.35;87.35
34073;BME280;20346;52.702;16.886;2024-03-22T03:06:50;101174.04;;;7.34;87.89
34073;BME280;20346;52.702;16.886;2024-03-22T03:09:16;101179.50;;;7.32;89.02
34073;BME280;20346;52.702;16.886;2024-03-22T03:11:41;101179.32;;;7.28;89.31
34073;BME280;20346;52.702;16.886;2024-03-22T03:14:07;101178.46;;;7.27;88.03
34073;BME280;20346;52.702;16.886;2024-03-22T03:16:32;101174.17;;;7.28;87.96
34073;BME280;20346;52.702;16.886;2024-03-22T03:18:57;101177.09;;;7.27;88.25
34073;BME280;20346;52.702;16.886;2024-03-22T03:21:23;101172.80;;;7.24;90.17
34073;BME280;20346;52.702;16.886;2024-03-22T03:23:48;101176.72;;;7.21;90.41
34073;BME280;20346;52.702;16.886;2024-03-22T03:26:14;101179.98;;;7.21;88.45
34073;BME280;20346;52.702;16.886;2024-03-22T03:28:39;101182.89;;;7.21;87.86
34073;BME280;20346;52.702;16.886;2024-03-22T03:31:04;101184.61;;;7.21;88.88
34073;BME280;20346;52.702;16.886;2024-03-22T03:33:30;101177.05;;;7.20;88.65
34073;BME280;20346;52.702;16.886;2024-03-22T03:35:55;101174.80;;;7.17;88.86
34073;BME280;20346;52.702;16.886;2024-03-22T03:38:21;101175.98;;;7.14;89.00
34073;BME280;20346;52.702;16.886;2024-03-22T03:40:47;101177.69;;;7.13;89.07
34073;BME280;20346;52.702;16.886;2024-03-22T03:43:13;101181.61;;;7.09;88.33
34073;BME280;20346;52.702;16.886;2024-03-22T03:45:38;101179.89;;;7.08;88.35
34073;BME280;20346;52.702;16.886;2024-03-22T03:48:04;101181.41;;;7.05;89.37
34073;BME280;20346;52.702;16.886;2024-03-22T03:50:29;101179.50;;;7.02;88.86
34073;BME280;20346;52.702;16.886;2024-03-22T03:52:55;101181.53;;;6.99;88.70
34073;BME280;20346;52.702;16.886;2024-03-22T03:55:22;101181.69;;;6.97;88.44
34073;BME280;20346;52.702;16.886;2024-03-22T03:57:47;101182.36;;;6.96;88.59
34073;BME280;20346;52.702;16.886;2024-03-22T04:00:19;101178.40;;;6.94;89.58
34073;BME280;20346;52.702;16.886;2024-03-22T04:02:45;101180.45;;;6.93;88.73
34073;BME280;20346;52.702;16.886;2024-03-22T04:05:10;101181.83;;;6.93;88.17
34073;BME280;20346;52.702;16.886;2024-03-22T04:07:35;101181.66;;;6.94;88.08
34073;BME280;20346;52.702;16.886;2024-03-22T04:10:01;101187.83;;;6.94;89.05
34073;BME280;20346;52.702;16.886;2024-03-22T04:12:26;101187.48;;;6.92;89.08
34073;BME280;20346;52.702;16.886;2024-03-22T04:14:52;101183.52;;;6.91;88.40
34073;BME280;20346;52.702;16.886;2024-03-22T04:17:18;101177.86;;;6.90;88.68
34073;BME280;20346;52.702;16.886;2024-03-22T04:19:43;101174.78;;;6.91;88.41
34073;BME280;20346;52.702;16.886;2024-03-22T04:22:09;101166.89;;;6.90;88.18
34073;BME280;20346;52.702;16.886;2024-03-22T04:24:34;101165.02;;;6.91;87.89
34073;BME280;20346;52.702;16.886;2024-03-22T04:26:59;101161.77;;;6.92;87.66
34073;BME280;20346;52.702;16.886;2024-03-22T04:29:25;101159.88;;;6.91;88.19
34073;BME280;20346;52.702;16.886;2024-03-22T04:31:50;101160.53;;;6.88;87.96
34073;BME280;20346;52.702;16.886;2024-03-22T04:34:16;101159.50;;;6.88;88.05
34073;BME280;20346;52.702;16.886;2024-03-22T04:36:42;101158.48;;;6.88;87.83
34073;BME280;20346;52.702;16.886;2024-03-22T04:39:08;101156.08;;;6.89;87.82
34073;BME280;20346;52.702;16.886;2024-03-22T04:41:35;101156.59;;;6.88;87.72
34073;BME280;20346;52.702;16.886;2024-03-22T04:44:00;101154.20;;;6.87;87.69
34073;BME280;20346;52.702;16.886;2024-03-22T04:46:25;101149.03;;;6.85;87.99
34073;BME280;20346;52.702;16.886;2024-03-22T04:48:51;101145.76;;;6.83;88.02
34073;BME280;20346;52.702;16.886;2024-03-22T04:51:16;101142.32;;;6.83;87.70
34073;BME280;20346;52.702;16.886;2024-03-22T04:53:41;101145.92;;;6.82;87.55
34073;BME280;20346;52.702;16.886;2024-03-22T04:56:07;101146.63;;;6.85;87.55
34073;BME280;20346;52.702;16.886;2024-03-22T04:58:32;101148.36;;;6.86;87.52
34073;BME280;20346;52.702;16.886;2024-03-22T05:00:58;101145.44;;;6.86;88.35
34073;BME280;20346;52.702;16.886;2024-03-22T05:03:24;101143.00;;;6.82;88.48
34073;BME280;20346;52.702;16.886;2024-03-22T05:05:50;101141.62;;;6.81;88.08
34073;BME280;20346;52.702;16.886;2024-03-22T05:08:16;101140.77;;;6.82;87.75
34073;BME280;20346;52.702;16.886;2024-03-22T05:10:42;101136.50;;;6.83;87.73
34073;BME280;20346;52.702;16.886;2024-03-22T05:13:08;101134.61;;;6.82;87.82
34073;BME280;20346;52.702;16.886;2024-03-22T05:15:33;101128.24;;;6.79;87.68
34073;BME280;20346;52.702;16.886;2024-03-22T05:17:59;101129.25;;;6.78;87.69
34073;BME280;20346;52.702;16.886;2024-03-22T05:20:25;101128.05;;;6.75;88.05
34073;BME280;20346;52.702;16.886;2024-03-22T05:22:50;101126.16;;;6.73;87.54
34073;BME280;20346;52.702;16.886;2024-03-22T05:25:16;101124.63;;;6.73;87.83
34073;BME280;20346;52.702;16.886;2024-03-22T05:27:42;101123.40;;;6.70;87.69
34073;BME280;20346;52.702;16.886;2024-03-22T05:30:11;101124.75;;;6.68;88.37
34073;BME280;20346;52.702;16.886;2024-03-22T05:32:38;101129.90;;;6.68;88.45
34073;BME280;20346;52.702;16.886;2024-03-22T05:35:04;101131.61;;;6.68;88.70
34073;BME280;20346;52.702;16.886;2024-03-22T05:37:30;101125.96;;;6.69;88.61
34073;BME280;20346;52.702;16.886;2024-03-22T05:39:56;101124.42;;;6.70;88.38
34073;BME280;20346;52.702;16.886;2024-03-22T05:42:21;101124.96;;;6.72;88.09
34073;BME280;20346;52.702;16.886;2024-03-22T05:44:47;101123.44;;;6.75;88.21
34073;BME280;20346;52.702;16.886;2024-03-22T05:47:13;101125.66;;;6.76;88.47
34073;BME280;20346;52.702;16.886;2024-03-22T05:49:38;101129.44;;;6.76;88.60
34073;BME280;20346;52.702;16.886;2024-03-22T05:52:03;101130.80;;;6.77;88.57
34073;BME280;20346;52.702;16.886;2024-03-22T05:54:29;101126.36;;;6.81;88.16
34073;BME280;20346;52.702;16.886;2024-03-22T05:56:55;101124.53;;;6.86;87.95
34073;BME280;20346;52.702;16.886;2024-03-22T05:59:20;101124.59;;;6.94;88.14
34073;BME280;20346;52.702;16.886;2024-03-22T06:01:45;101123.41;;;6.96;87.82
34073;BME280;20346;52.702;16.886;2024-03-22T06:04:11;101122.08;;;7.02;87.96
34073;BME280;20346;52.702;16.886;2024-03-22T06:06:36;101118.66;;;7.04;88.59
34073;BME280;20346;52.702;16.886;2024-03-22T06:09:02;101118.33;;;7.05;88.40
34073;BME280;20346;52.702;16.886;2024-03-22T06:11:35;101113.38;;;7.10;88.09
34073;BME280;20346;52.702;16.886;2024-03-22T06:14:00;101111.20;;;7.16;88.00
34073;BME280;20346;52.702;16.886;2024-03-22T06:16:26;101106.24;;;7.20;87.92
34073;BME280;20346;52.702;16.886;2024-03-22T06:18:51;101111.58;;;7.22;87.96
34073;BME280;20346;52.702;16.886;2024-03-22T06:21:16;101110.35;;;7.19;87.97
34073;BME280;20346;52.702;16.886;2024-03-22T06:23:50;101108.45;;;7.17;88.47
34073;BME280;20346;52.702;16.886;2024-03-22T06:26:15;101105.88;;;7.16;88.18
34073;BME280;20346;52.702;16.886;2024-03-22T06:28:41;101104.18;;;7.18;88.08
34073;BME280;20346;52.702;16.886;2024-03-22T06:31:06;101099.73;;;7.21;88.17
34073;BME280;20346;52.702;16.886;2024-03-22T06:33:31;101102.30;;;7.22;88.71
34073;BME280;20346;52.702;16.886;2024-03-22T06:35:57;101098.38;;;7.23;88.43
34073;BME280;20346;52.702;16.886;2024-03-22T06:38:22;101099.41;;;7.29;88.77
34073;BME280;20346;52.702;16.886;2024-03-22T06:40:47;101098.91;;;7.32;88.40
34073;BME280;20346;52.702;16.886;2024-03-22T06:43:13;101096.36;;;7.38;88.23
34073;BME280;20346;52.702;16.886;2024-03-22T06:45:38;101093.14;;;7.44;88.39
34073;BME280;20346;52.702;16.886;2024-03-22T06:48:04;101089.87;;;7.44;88.50
34073;BME280;20346;52.702;16.886;2024-03-22T06:50:29;101083.38;;;7.48;88.45
34073;BME280;20346;52.702;16.886;2024-03-22T06:52:54;101077.94;;;7.59;88.68
34073;BME280;20346;52.702;16.886;2024-03-22T06:55:20;101074.52;;;7.64;88.82
34073;BME280;20346;52.702;16.886;2024-03-22T06:57:47;101070.89;;;7.60;88.50
34073;BME280;20346;52.702;16.886;2024-03-22T07:00:14;101063.88;;;7.64;88.81
34073;BME280;20346;52.702;16.886;2024-03-22T07:02:40;101059.80;;;7.74;88.72
34073;BME280;20346;52.702;16.886;2024-03-22T07:05:08;101055.17;;;7.79;88.59
34073;BME280;20346;52.702;16.886;2024-03-22T07:07:35;101045.54;;;7.85;88.42
34073;BME280;20346;52.702;16.886;2024-03-22T07:10:01;101041.60;;;7.86;88.45
34073;BME280;20346;52.702;16.886;2024-03-22T07:12:27;101039.36;;;7.86;88.33
34073;BME280;20346;52.702;16.886;2024-03-22T07:14:53;101038.69;;;7.94;88.58
34073;BME280;20346;52.702;16.886;2024-03-22T07:17:18;101033.73;;;8.00;88.52
34073;BME280;20346;52.702;16.886;2024-03-22T07:19:51;101033.38;;;8.01;88.37
34073;BME280;20346;52.702;16.886;2024-03-22T07:22:18;101029.60;;;8.00;88.25
34073;BME280;20346;52.702;16.886;2024-03-22T07:24:43;101037.34;;;8.05;88.45
34073;BME280;20346;52.702;16.886;2024-03-22T07:27:08;101041.64;;;8.09;88.11
34073;BME280;20346;52.702;16.886;2024-03-22T07:29:34;101037.52;;;8.10;87.98
34073;BME280;20346;52.702;16.886;2024-03-22T07:31:59;101037.17;;;8.13;87.95
34073;BME280;20346;52.702;16.886;2024-03-22T07:34:24;101036.31;;;8.12;87.46
34073;BME280;20346;52.702;16.886;2024-03-22T07:36:49;101037.69;;;8.14;87.74
34073;BME280;20346;52.702;16.886;2024-03-22T07:39:15;101034.43;;;8.19;87.82
34073;BME280;20346;52.702;16.886;2024-03-22T07:41:40;101030.65;;;8.20;87.19
34073;BME280;20346;52.702;16.886;2024-03-22T07:44:05;101031.17;;;8.23;87.64
34073;BME280;20346;52.702;16.886;2024-03-22T07:46:31;101026.36;;;8.31;87.30
34073;BME280;20346;52.702;16.886;2024-03-22T07:48:56;101021.89;;;8.33;86.86
34073;BME280;20346;52.702;16.886;2024-03-22T07:51:22;101022.92;;;8.36;86.22
34073;BME280;20346;52.702;16.886;2024-03-22T07:53:47;101020.86;;;8.36;85.64
34073;BME280;20346;52.702;16.886;2024-03-22T07:56:12;101023.78;;;8.36;85.63
34073;BME280;20346;52.702;16.886;2024-03-22T07:58:38;101016.06;;;8.38;85.67
34073;BME280;20346;52.702;16.886;2024-03-22T08:01:04;101015.71;;;8.38;85.37
34073;BME280;20346;52.702;16.886;2024-03-22T08:03:29;101014.52;;;8.43;85.39
34073;BME280;20346;52.702;16.886;2024-03-22T08:05:55;101017.42;;;8.44;84.95
34073;BME280;20346;52.702;16.886;2024-03-22T08:08:20;101013.30;;;8.44;85.12
34073;BME280;20346;52.702;16.886;2024-03-22T08:10:46;101012.27;;;8.42;85.04
34073;BME280;20346;52.702;16.886;2024-03-22T08:13:11;101015.19;;;8.46;84.50
34073;BME280;20346;52.702;16.886;2024-03-22T08:15:36;101016.56;;;8.48;84.42
34073;BME280;20346;52.702;16.886;2024-03-22T08:18:02;101012.95;;;8.51;83.69
34073;BME280;20346;52.702;16.886;2024-03-22T08:20:28;101008.48;;;8.52;83.39
34073;BME280;20346;52.702;16.886;2024-03-22T08:22:53;101004.88;;;8.57;83.95
34073;BME280;20346;52.702;16.886;2024-03-22T08:25:19;101005.72;;;8.62;83.48
34073;BME280;20346;52.702;16.886;2024-03-22T08:27:46;100998.49;;;8.69;83.58
34073;BME280;20346;52.702;16.886;2024-03-22T08:30:12;100995.55;;;8.77;83.94
34073;BME280;20346;52.702;16.886;2024-03-22T08:32:38;100986.57;;;8.86;83.91
34073;BME280;20346;52.702;16.886;2024-03-22T08:35:04;100982.92;;;8.96;83.38
34073;BME280;20346;52.702;16.886;2024-03-22T08:37:31;100985.98;;;9.05;83.83
34073;BME280;20346;52.702;16.886;2024-03-22T08:39:56;100980.11;;;9.13;82.67
34073;BME280;20346;52.702;16.886;2024-03-22T08:42:22;100977.84;;;9.19;83.35
34073;BME280;20346;52.702;16.886;2024-03-22T08:44:47;100978.30;;;9.29;82.92
34073;BME280;20346;52.702;16.886;2024-03-22T08:47:12;100977.89;;;9.39;82.78
34073;BME280;20346;52.702;16.886;2024-03-22T08:49:38;100977.70;;;9.43;82.47
34073;BME280;20346;52.702;16.886;2024-03-22T08:52:04;100974.23;;;9.46;82.46
34073;BME280;20346;52.702;16.886;2024-03-22T08:54:30;100972.16;;;9.48;82.39
34073;BME280;20346;52.702;16.886;2024-03-22T08:56:55;100962.64;;;9.57;82.27
34073;BME280;20346;52.702;16.886;2024-03-22T08:59:20;100956.52;;;9.73;82.23
34073;BME280;20346;52.702;16.886;2024-03-22T09:01:46;100950.72;;;10.06;81.52
34073;BME280;20346;52.702;16.886;2024-03-22T09:04:13;100948.52;;;10.42;81.46
34073;BME280;20346;52.702;16.886;2024-03-22T09:06:39;100943.73;;;10.52;78.75
34073;BME280;20346;52.702;16.886;2024-03-22T09:09:05;100937.98;;;10.74;80.50
34073;BME280;20346;52.702;16.886;2024-03-22T09:11:31;100932.82;;;10.88;78.49
34073;BME280;20346;52.702;16.886;2024-03-22T09:13:57;100935.05;;;10.75;78.76
34073;BME280;20346;52.702;16.886;2024-03-22T09:16:23;100929.38;;;10.74;79.27
34073;BME280;20346;52.702;16.886;2024-03-22T09:18:49;100926.67;;;10.69;77.82
34073;BME280;20346;52.702;16.886;2024-03-22T09:21:14;100920.91;;;10.75;77.41
34073;BME280;20346;52.702;16.886;2024-03-22T09:23:40;100918.52;;;11.11;78.23
34073;BME280;20346;52.702;16.886;2024-03-22T09:26:05;100917.55;;;11.54;77.13
34073;BME280;20346;52.702;16.886;2024-03-22T09:28:31;100920.48;;;11.78;76.69
34073;BME280;20346;52.702;16.886;2024-03-22T09:30:56;100915.12;;;11.89;74.39
34073;BME280;20346;52.702;16.886;2024-03-22T09:33:22;100905.67;;;12.05;73.01
34073;BME280;20346;52.702;16.886;2024-03-22T09:35:47;100909.48;;;12.14;73.92
34073;BME280;20346;52.702;16.886;2024-03-22T09:38:12;100908.46;;;12.03;73.34
34073;BME280;20346;52.702;16.886;2024-03-22T09:40:38;100896.52;;;11.96;72.89
34073;BME280;20346;52.702;16.886;2024-03-22T09:43:06;100895.55;;;11.92;72.58
34073;BME280;20346;52.702;16.886;2024-03-22T09:45:32;100892.21;;;11.85;72.30
34073;BME280;20346;52.702;16.886;2024-03-22T09:47:58;100896.29;;;11.79;72.47
34073;BME280;20346;52.702;16.886;2024-03-22T09:50:23;100894.26;;;11.76;73.74
34073;BME280;20346;52.702;16.886;2024-03-22T09:52:51;100893.60;;;11.62;72.93
34073;BME280;20346;52.702;16.886;2024-03-22T09:55:21;100887.59;;;11.49;73.49
34073;BME280;20346;52.702;16.886;2024-03-22T09:57:48;100884.97;;;11.41;73.60
34073;BME280;20346;52.702;16.886;2024-03-22T10:00:17;100879.22;;;11.34;73.17
34073;BME280;20346;52.702;16.886;2024-03-22T10:02:43;100874.98;;;11.41;74.29
34073;BME280;20346;52.702;16.886;2024-03-22T10:05:10;100870.30;;;11.41;73.83
34073;BME280;20346;52.702;16.886;2024-03-22T10:07:36;100861.05;;;11.37;73.81
34073;BME280;20346;52.702;16.886;2024-03-22T10:10:01;100849.80;;;11.39;74.91
34073;BME280;20346;52.702;16.886;2024-03-22T10:12:28;100855.60;;;11.42;74.12
34073;BME280;20346;52.702;16.886;2024-03-22T10:14:53;100852.75;;;11.46;74.20
34073;BME280;20346;52.702;16.886;2024-03-22T10:17:20;100855.29;;;11.50;73.71
34073;BME280;20346;52.702;16.886;2024-03-22T10:19:45;100845.64;;;11.48;72.97
34073;BME280;20346;52.702;16.886;2024-03-22T10:22:11;100841.09;;;11.43;72.74
34073;BME280;20346;52.702;16.886;2024-03-22T10:24:36;100845.86;;;11.36;72.95
34073;BME280;20346;52.702;16.886;2024-03-22T10:27:01;100838.25;;;11.26;73.00
34073;BME280;20346;52.702;16.886;2024-03-22T10:29:27;100833.13;;;11.11;72.93
34073;BME280;20346;52.702;16.886;2024-03-22T10:31:54;100843.38;;;10.94;73.25
34073;BME280;20346;52.702;16.886;2024-03-22T10:34:24;100834.20;;;10.86;73.56
34073;BME280;20346;52.702;16.886;2024-03-22T10:36:50;100833.01;;;10.85;73.96
34073;BME280;20346;52.702;16.886;2024-03-22T10:39:19;100830.63;;;10.82;73.76
34073;BME280;20346;52.702;16.886;2024-03-22T10:41:48;100825.03;;;10.76;73.66
34073;BME280;20346;52.702;16.886;2024-03-22T10:44:17;100826.47;;;10.71;73.78
34073;BME280;20346;52.702;16.886;2024-03-22T10:46:46;100817.39;;;10.66;74.04
34073;BME280;20346;52.702;16.886;2024-03-22T10:49:20;100816.84;;;10.68;74.27
34073;BME280;20346;52.702;16.886;2024-03-22T10:51:49;100812.02;;;10.68;74.73
34073;BME280;20346;52.702;16.886;2024-03-22T10:54:20;100815.06;;;10.59;75.25
34073;BME280;20346;52.702;16.886;2024-03-22T10:56:46;100808.08;;;10.53;75.85
34073;BME280;20346;52.702;16.886;2024-03-22T10:59:21;100806.35;;;10.41;76.85
34073;BME280;20346;52.702;16.886;2024-03-22T11:01:49;100806.45;;;10.34;76.79
34073;BME280;20346;52.702;16.886;2024-03-22T11:04:19;100801.61;;;10.34;76.40
34073;BME280;20346;52.702;16.886;2024-03-22T11:06:49;100802.27;;;10.37;76.46
34073;BME280;20346;52.702;16.886;2024-03-22T11:09:21;100797.63;;;10.37;77.38
34073;BME280;20346;52.702;16.886;2024-03-22T11:11:47;100790.36;;;10.38;77.38
34073;BME280;20346;52.702;16.886;2024-03-22T11:14:12;100780.14;;;10.41;77.26
34073;BME280;20346;52.702;16.886;2024-03-22T11:16:37;100778.11;;;10.40;77.87
34073;BME280;20346;52.702;16.886;2024-03-22T11:19:04;100770.23;;;10.37;78.14
34073;BME280;20346;52.702;16.886;2024-03-22T11:21:32;100757.33;;;10.35;78.07
34073;BME280;20346;52.702;16.886;2024-03-22T11:24:00;100750.92;;;10.37;78.16
34073;BME280;20346;52.702;16.886;2024-03-22T11:26:26;100737.23;;;10.41;77.98
34073;BME280;20346;52.702;16.886;2024-03-22T11:28:51;100724.89;;;10.49;77.40
34073;BME280;20346;52.702;16.886;2024-03-22T11:31:17;100721.20;;;10.54;77.70
34073;BME280;20346;52.702;16.886;2024-03-22T11:33:44;100727.30;;;10.60;77.25
34073;BME280;20346;52.702;16.886;2024-03-22T11:36:09;100730.98;;;10.69;76.58
34073;BME280;20346;52.702;16.886;2024-03-22T11:38:35;100731.77;;;10.85;77.25
34073;BME280;20346;52.702;16.886;2024-03-22T11:41:01;100727.30;;;11.05;76.42
34073;BME280;20346;52.702;16.886;2024-03-22T11:43:29;100724.33;;;11.17;76.39
34073;BME280;20346;52.702;16.886;2024-03-22T11:45:55;100727.29;;;11.26;76.04
34073;BME280;20346;52.702;16.886;2024-03-22T11:48:21;100721.31;;;11.33;75.59
34073;BME280;20346;52.702;16.886;2024-03-22T11:50:48;100713.92;;;11.31;75.08
34073;BME280;20346;52.702;16.886;2024-03-22T11:53:16;100703.52;;;11.23;74.02
34073;BME280;20346;52.702;16.886;2024-03-22T11:55:41;100699.63;;;11.19;74.26
34073;BME280;20346;52.702;16.886;2024-03-22T11:58:09;100703.42;;;11.08;73.81
34073;BME280;20346;52.702;16.886;2024-03-22T12:00:36;100692.36;;;11.00;74.42
34073;BME280;20346;52.702;16.886;2024-03-22T12:03:06;100688.58;;;10.99;74.16
34073;BME280;20346;52.702;16.886;2024-03-22T12:05:31;100688.47;;;10.95;74.63
34073;BME280;20346;52.702;16.886;2024-03-22T12:07:57;100684.40;;;10.91;74.82
34073;BME280;20346;52.702;16.886;2024-03-22T12:10:22;100681.92;;;10.86;74.82
34073;BME280;20346;52.702;16.886;2024-03-22T12:12:48;100681.55;;;10.87;74.89
34073;BME280;20346;52.702;16.886;2024-03-22T12:15:13;100676.27;;;10.93;75.25
34073;BME280;20346;52.702;16.886;2024-03-22T12:17:41;100682.86;;;10.91;74.19
34073;BME280;20346;52.702;16.886;2024-03-22T12:20:09;100670.77;;;10.92;74.33
34073;BME280;20346;52.702;16.886;2024-03-22T12:22:35;100658.48;;;10.93;74.51
34073;BME280;20346;52.702;16.886;2024-03-22T12:25:01;100664.83;;;10.96;74.72
34073;BME280;20346;52.702;16.886;2024-03-22T12:27:26;100655.36;;;10.95;74.33
34073;BME280;20346;52.702;16.886;2024-03-22T12:29:51;100649.83;;;10.95;74.29
34073;BME280;20346;52.702;16.886;2024-03-22T12:32:17;100645.67;;;10.95;74.27
34073;BME280;20346;52.702;16.886;2024-03-22T12:34:42;100643.23;;;10.99;74.26
34073;BME280;20346;52.702;16.886;2024-03-22T12:37:09;100641.04;;;11.05;74.49
34073;BME280;20346;52.702;16.886;2024-03-22T12:39:34;100632.48;;;11.11;74.64
34073;BME280;20346;52.702;16.886;2024-03-22T12:42:00;100632.69;;;11.19;74.03